Abadeh, Iran

1:32 PM IRDT on August 28, 2014 (GMT +0430)
Abadeh | Change Station
CLOSE
Current Station
Airport
Location: Abadeh,
Elevation: 6575 ft
Nearby Weather Stations

Elev 6575 ft 31.03 °N, 52.79 °E | Updated 2 hours ago

Clear
Clear
75 °F
Feels Like 75 °F
N
16
Wind Variable Wind from NNE

Today
High -- | Low -- °F
--% Chance of Precip.
Yesterday
High -- | Low -- °F
Precip. -- in
6:32 AM 7:27 PM
Waxing Crescent, 7% visible
Pressure 30.18 in
Visibility -9999.0 miles
Clouds
Dew Point 25 °F
Humidity 15%
Rainfall 0.00 in
Snow Depth Not available.
UV Not available.
Pollen Not available.
Air Quality Not available.
Flu Activity Not available.
METAR OISA 280655Z 03014KT CAVOK 24/M04 Q1022

More Conditions Fewer Conditions

Pressure 30.18 in
Visibility -9999.0 miles
Clouds
Dew Point 25 °F
Humidity 15%
Rainfall 0.00 in
Snow Depth Not available.
UV Not available.
Pollen Not available.
Air Quality Not available.
Flu Activity Not available.
METAR OISA 280655Z 03014KT CAVOK 24/M04 Q1022

More Conditions Fewer Conditions

10-Day Weather Forecast

Almanac

Astronomy

Aug. 28, 2014 Rise Set
Actual Time 6:32 AM IRDT 7:27 PM IRDT
Civil Twilight 6:07 AM IRDT 7:52 PM IRDT
Nautical Twilight 5:38 AM IRDT 8:22 PM IRDT
Astronomical Twilight 5:08 AM IRDT 8:52 PM IRDT
Moon 8:50 AM IRDT 8:53 PM IRDT
Length of Visible Light 13h 44m
Length of Day
12h 55m
Tomorrow will be 1m 47s shorter.
Waxing Crescent, 7% of the Moon is Illuminated
Today
Waxing Crescent
Sep 2
First Quarter
Sep 8
Full
Sep 15
Last Quarter
Sep 24
New

Yesterday's Extremes

Country Highs Country Lows

Community

WunderPhotos

Upload Photos

1,747,918 photos uploaded!

Nearby

Snow Depth

Not available.

Earthquake Activity

City Distance Mag. Time & Date
No recent earthquake activity has been reported nearby.
Minimum magnitude displayed is 2.5.

Coastal Water Temperatures

Place Temperature
No Stations Reporting

Nearby Weather Stations